sensor_id;sensor_type;location;lat;lon;timestamp;pressure;altitude;pressure_sealevel;temperature;humidity
38054;BME280;23859;50.672;7.164;2022-11-12T00:01:01;102350.06;;;7.57;100.00
38054;BME280;23859;50.672;7.164;2022-11-12T00:03:27;102352.28;;;7.48;100.00
38054;BME280;23859;50.672;7.164;2022-11-12T00:05:53;102354.78;;;7.51;100.00
38054;BME280;23859;50.672;7.164;2022-11-12T00:08:19;102349.22;;;7.57;100.00
38054;BME280;23859;50.672;7.164;2022-11-12T00:10:45;102346.84;;;7.51;100.00
38054;BME280;23859;50.672;7.164;2022-11-12T00:13:11;102353.84;;;7.52;100.00
38054;BME280;23859;50.672;7.164;2022-11-12T00:15:38;102347.16;;;7.45;100.00
38054;BME280;23859;50.672;7.164;2022-11-12T00:18:04;102349.88;;;7.43;100.00
38054;BME280;23859;50.672;7.164;2022-11-12T00:20:30;102356.06;;;7.61;100.00
38054;BME280;23859;50.672;7.164;2022-11-12T00:22:56;102354.81;;;7.68;100.00
38054;BME280;23859;50.672;7.164;2022-11-12T00:25:22;102355.91;;;7.64;100.00
38054;BME280;23859;50.672;7.164;2022-11-12T00:27:48;102358.41;;;7.67;100.00
38054;BME280;23859;50.672;7.164;2022-11-12T00:30:14;102350.50;;;7.48;100.00
38054;BME280;23859;50.672;7.164;2022-11-12T00:32:40;102356.34;;;7.55;100.00
38054;BME280;23859;50.672;7.164;2022-11-12T00:35:06;102347.31;;;7.59;100.00
38054;BME280;23859;50.672;7.164;2022-11-12T00:37:32;102351.16;;;7.53;100.00
38054;BME280;23859;50.672;7.164;2022-11-12T00:39:58;102352.94;;;7.34;100.00
38054;BME280;23859;50.672;7.164;2022-11-12T00:42:24;102349.00;;;7.43;100.00
38054;BME280;23859;50.672;7.164;2022-11-12T00:44:50;102359.09;;;7.35;100.00
38054;BME280;23859;50.672;7.164;2022-11-12T00:47:16;102363.75;;;7.30;100.00
38054;BME280;23859;50.672;7.164;2022-11-12T00:49:42;102367.72;;;7.20;100.00
38054;BME280;23859;50.672;7.164;2022-11-12T00:52:08;102373.31;;;7.32;100.00
38054;BME280;23859;50.672;7.164;2022-11-12T00:54:34;102370.81;;;7.29;100.00
38054;BME280;23859;50.672;7.164;2022-11-12T00:57:00;102372.31;;;7.35;100.00
38054;BME280;23859;50.672;7.164;2022-11-12T00:59:26;102375.16;;;7.30;100.00
38054;BME280;23859;50.672;7.164;2022-11-12T01:01:52;102367.88;;;7.35;100.00
38054;BME280;23859;50.672;7.164;2022-11-12T01:04:18;102383.59;;;7.20;100.00
38054;BME280;23859;50.672;7.164;2022-11-12T01:06:44;102373.59;;;7.27;100.00
38054;BME280;23859;50.672;7.164;2022-11-12T01:09:10;102374.72;;;7.21;100.00
38054;BME280;23859;50.672;7.164;2022-11-12T01:11:36;102371.81;;;7.27;100.00
38054;BME280;23859;50.672;7.164;2022-11-12T01:14:06;102380.66;;;7.26;100.00
38054;BME280;23859;50.672;7.164;2022-11-12T01:16:36;102383.19;;;7.29;100.00
38054;BME280;23859;50.672;7.164;2022-11-12T01:19:02;102383.03;;;7.32;100.00
38054;BME280;23859;50.672;7.164;2022-11-12T01:21:30;102384.66;;;7.16;100.00
38054;BME280;23859;50.672;7.164;2022-11-12T01:23:57;102379.16;;;7.02;100.00
38054;BME280;23859;50.672;7.164;2022-11-12T01:26:24;102374.28;;;6.93;100.00
38054;BME280;23859;50.672;7.164;2022-11-12T01:28:50;102355.50;;;6.99;100.00
38054;BME280;23859;50.672;7.164;2022-11-12T01:31:17;102358.94;;;7.01;100.00
38054;BME280;23859;50.672;7.164;2022-11-12T01:33:44;102363.50;;;6.98;100.00
38054;BME280;23859;50.672;7.164;2022-11-12T01:36:11;102356.75;;;6.92;100.00
38054;BME280;23859;50.672;7.164;2022-11-12T01:38:38;102360.03;;;6.97;100.00
38054;BME280;23859;50.672;7.164;2022-11-12T01:41:05;102358.44;;;6.93;100.00
38054;BME280;23859;50.672;7.164;2022-11-12T01:43:31;102365.44;;;6.94;100.00
38054;BME280;23859;50.672;7.164;2022-11-12T01:45:58;102360.66;;;7.02;100.00
38054;BME280;23859;50.672;7.164;2022-11-12T01:48:30;102362.44;;;7.02;100.00
38054;BME280;23859;50.672;7.164;2022-11-12T01:50:58;102360.75;;;7.01;100.00
38054;BME280;23859;50.672;7.164;2022-11-12T01:53:24;102360.94;;;6.96;100.00
38054;BME280;23859;50.672;7.164;2022-11-12T01:55:52;102361.94;;;6.94;100.00
38054;BME280;23859;50.672;7.164;2022-11-12T01:58:20;102364.88;;;6.88;100.00
38054;BME280;23859;50.672;7.164;2022-11-12T02:00:46;102361.94;;;6.94;100.00
38054;BME280;23859;50.672;7.164;2022-11-12T02:03:20;102362.22;;;6.88;100.00
38054;BME280;23859;50.672;7.164;2022-11-12T02:05:54;102365.44;;;6.94;100.00
38054;BME280;23859;50.672;7.164;2022-11-12T02:08:22;102361.56;;;6.83;100.00
38054;BME280;23859;50.672;7.164;2022-11-12T02:10:48;102358.22;;;6.79;100.00
38054;BME280;23859;50.672;7.164;2022-11-12T02:13:15;102364.34;;;6.80;100.00
38054;BME280;23859;50.672;7.164;2022-11-12T02:15:59;102350.44;;;6.76;100.00
38054;BME280;23859;50.672;7.164;2022-11-12T02:18:25;102361.78;;;6.78;100.00
38054;BME280;23859;50.672;7.164;2022-11-12T02:20:52;102354.66;;;6.80;100.00
38054;BME280;23859;50.672;7.164;2022-11-12T02:23:18;102357.56;;;6.74;100.00
38054;BME280;23859;50.672;7.164;2022-11-12T02:25:44;102358.69;;;6.69;100.00
38054;BME280;23859;50.672;7.164;2022-11-12T02:28:10;102360.41;;;6.70;100.00
38054;BME280;23859;50.672;7.164;2022-11-12T02:30:44;102365.06;;;6.83;100.00
38054;BME280;23859;50.672;7.164;2022-11-12T02:33:10;102373.97;;;6.81;100.00
38054;BME280;23859;50.672;7.164;2022-11-12T02:35:36;102362.28;;;6.86;100.00
38054;BME280;23859;50.672;7.164;2022-11-12T02:38:02;102362.19;;;6.69;100.00
38054;BME280;23859;50.672;7.164;2022-11-12T02:40:29;102365.34;;;6.77;100.00
38054;BME280;23859;50.672;7.164;2022-11-12T02:42:55;102358.63;;;6.70;100.00
38054;BME280;23859;50.672;7.164;2022-11-12T02:45:21;102360.41;;;6.70;100.00
38054;BME280;23859;50.672;7.164;2022-11-12T02:47:47;102359.91;;;6.62;100.00
38054;BME280;23859;50.672;7.164;2022-11-12T02:50:14;102361.41;;;6.67;100.00
38054;BME280;23859;50.672;7.164;2022-11-12T02:52:40;102357.44;;;6.58;100.00
38054;BME280;23859;50.672;7.164;2022-11-12T02:55:06;102358.38;;;6.57;100.00
38054;BME280;23859;50.672;7.164;2022-11-12T02:57:32;102366.94;;;6.61;100.00
38054;BME280;23859;50.672;7.164;2022-11-12T02:59:58;102368.09;;;6.56;100.00
38054;BME280;23859;50.672;7.164;2022-11-12T03:02:24;102366.94;;;6.61;100.00
38054;BME280;23859;50.672;7.164;2022-11-12T03:04:50;102370.66;;;6.58;100.00
38054;BME280;23859;50.672;7.164;2022-11-12T03:07:16;102368.25;;;6.71;100.00
38054;BME280;23859;50.672;7.164;2022-11-12T03:09:42;102367.03;;;6.60;100.00
38054;BME280;23859;50.672;7.164;2022-11-12T03:12:08;102364.19;;;6.64;100.00
38054;BME280;23859;50.672;7.164;2022-11-12T03:14:34;102357.53;;;6.56;100.00
38054;BME280;23859;50.672;7.164;2022-11-12T03:17:00;102361.16;;;6.54;100.00
38054;BME280;23859;50.672;7.164;2022-11-12T03:19:26;102363.91;;;6.51;100.00
38054;BME280;23859;50.672;7.164;2022-11-12T03:21:52;102353.25;;;6.54;100.00
38054;BME280;23859;50.672;7.164;2022-11-12T03:24:18;102356.53;;;6.59;100.00
38054;BME280;23859;50.672;7.164;2022-11-12T03:26:44;102244.22;;;5.94;100.00
38054;BME280;23859;50.672;7.164;2022-11-12T03:29:10;102351.78;;;6.47;100.00
38054;BME280;23859;50.672;7.164;2022-11-12T03:31:37;102351.06;;;6.63;100.00
38054;BME280;23859;50.672;7.164;2022-11-12T03:34:03;102349.78;;;6.52;100.00
38054;BME280;23859;50.672;7.164;2022-11-12T03:36:29;102344.78;;;6.46;100.00
38054;BME280;23859;50.672;7.164;2022-11-12T03:38:55;102339.38;;;6.49;100.00
38054;BME280;23859;50.672;7.164;2022-11-12T03:41:21;102347.97;;;6.54;100.00
38054;BME280;23859;50.672;7.164;2022-11-12T03:43:47;102346.38;;;6.50;100.00
38054;BME280;23859;50.672;7.164;2022-11-12T03:46:13;102344.25;;;6.58;100.00
38054;BME280;23859;50.672;7.164;2022-11-12T03:48:39;102341.09;;;6.50;100.00
38054;BME280;23859;50.672;7.164;2022-11-12T03:51:04;102345.50;;;6.49;100.00
38054;BME280;23859;50.672;7.164;2022-11-12T03:53:30;102341.88;;;6.52;100.00
38054;BME280;23859;50.672;7.164;2022-11-12T03:55:56;102337.50;;;6.51;100.00
38054;BME280;23859;50.672;7.164;2022-11-12T03:58:22;102333.69;;;6.58;100.00
38054;BME280;23859;50.672;7.164;2022-11-12T04:00:48;102334.59;;;6.57;100.00
38054;BME280;23859;50.672;7.164;2022-11-12T04:03:14;102329.59;;;6.70;100.00
38054;BME280;23859;50.672;7.164;2022-11-12T04:05:40;102326.22;;;6.67;100.00
38054;BME280;23859;50.672;7.164;2022-11-12T04:08:24;102325.66;;;6.61;100.00
38054;BME280;23859;50.672;7.164;2022-11-12T04:11:04;102326.72;;;6.75;100.00
38054;BME280;23859;50.672;7.164;2022-11-12T04:13:30;102326.28;;;6.65;100.00
38054;BME280;23859;50.672;7.164;2022-11-12T04:18:41;102327.34;;;6.61;100.00
38054;BME280;23859;50.672;7.164;2022-11-12T04:21:30;102331.69;;;6.62;100.00
38054;BME280;23859;50.672;7.164;2022-11-12T04:24:31;102326.97;;;6.69;100.00
38054;BME280;23859;50.672;7.164;2022-11-12T04:27:27;102319.84;;;6.53;100.00
38054;BME280;23859;50.672;7.164;2022-11-12T04:29:54;102317.38;;;6.48;100.00
38054;BME280;23859;50.672;7.164;2022-11-12T04:32:48;102313.75;;;6.51;100.00
38054;BME280;23859;50.672;7.164;2022-11-12T04:35:14;102314.41;;;6.56;100.00
38054;BME280;23859;50.672;7.164;2022-11-12T04:37:41;102317.19;;;6.53;100.00
38054;BME280;23859;50.672;7.164;2022-11-12T04:42:54;102312.63;;;6.56;100.00
38054;BME280;23859;50.672;7.164;2022-11-12T04:45:39;102312.28;;;6.63;100.00
38054;BME280;23859;50.672;7.164;2022-11-12T04:48:06;102313.91;;;6.48;100.00
38054;BME280;23859;50.672;7.164;2022-11-12T04:50:32;102302.81;;;6.40;100.00
38054;BME280;23859;50.672;7.164;2022-11-12T04:52:58;102305.53;;;6.38;100.00
38054;BME280;23859;50.672;7.164;2022-11-12T04:55:24;102304.41;;;6.44;100.00
38054;BME280;23859;50.672;7.164;2022-11-12T04:57:50;102309.53;;;6.47;100.00
38054;BME280;23859;50.672;7.164;2022-11-12T05:00:16;102302.97;;;6.37;100.00
38054;BME280;23859;50.672;7.164;2022-11-12T05:02:42;102300.56;;;6.51;100.00
38054;BME280;23859;50.672;7.164;2022-11-12T05:05:08;102309.44;;;6.50;100.00
38054;BME280;23859;50.672;7.164;2022-11-12T05:07:34;102307.44;;;6.55;100.00
38054;BME280;23859;50.672;7.164;2022-11-12T05:10:00;102305.81;;;6.70;100.00
38054;BME280;23859;50.672;7.164;2022-11-12T05:12:26;102307.19;;;6.59;100.00
38054;BME280;23859;50.672;7.164;2022-11-12T05:14:52;102294.63;;;6.46;100.00
38054;BME280;23859;50.672;7.164;2022-11-12T05:17:18;102299.09;;;6.63;100.00
38054;BME280;23859;50.672;7.164;2022-11-12T05:19:44;102301.16;;;6.57;100.00
38054;BME280;23859;50.672;7.164;2022-11-12T05:22:10;102291.59;;;6.55;100.00
38054;BME280;23859;50.672;7.164;2022-11-12T05:24:37;102291.72;;;6.52;100.00
38054;BME280;23859;50.672;7.164;2022-11-12T05:27:05;102284.03;;;6.47;100.00
38054;BME280;23859;50.672;7.164;2022-11-12T05:29:31;102290.16;;;6.48;100.00
38054;BME280;23859;50.672;7.164;2022-11-12T05:31:57;102287.44;;;6.49;100.00
38054;BME280;23859;50.672;7.164;2022-11-12T05:34:23;102283.72;;;6.53;100.00
38054;BME280;23859;50.672;7.164;2022-11-12T05:36:49;102285.59;;;6.51;100.00
38054;BME280;23859;50.672;7.164;2022-11-12T05:39:15;102284.31;;;6.60;100.00
38054;BME280;23859;50.672;7.164;2022-11-12T05:41:41;102293.16;;;6.59;100.00
38054;BME280;23859;50.672;7.164;2022-11-12T05:44:07;102287.16;;;6.55;100.00
38054;BME280;23859;50.672;7.164;2022-11-12T05:46:33;102285.78;;;6.47;100.00
38054;BME280;23859;50.672;7.164;2022-11-12T05:48:59;102284.03;;;6.47;100.00
38054;BME280;23859;50.672;7.164;2022-11-12T05:51:25;102282.28;;;6.46;100.00
38054;BME280;23859;50.672;7.164;2022-11-12T05:53:51;102283.56;;;6.38;100.00
38054;BME280;23859;50.672;7.164;2022-11-12T05:56:17;102287.44;;;6.49;100.00
38054;BME280;23859;50.672;7.164;2022-11-12T05:58:43;102283.34;;;6.42;100.00
38054;BME280;23859;50.672;7.164;2022-11-12T06:01:09;102282.72;;;6.56;100.00
38054;BME280;23859;50.672;7.164;2022-11-12T06:03:35;102282.69;;;6.37;100.00
38054;BME280;23859;50.672;7.164;2022-11-12T06:06:01;102277.69;;;6.31;100.00
38054;BME280;23859;50.672;7.164;2022-11-12T06:08:27;102280.78;;;6.41;100.00
38054;BME280;23859;50.672;7.164;2022-11-12T06:10:53;102282.91;;;6.33;100.00
38054;BME280;23859;50.672;7.164;2022-11-12T06:13:20;102290.84;;;6.33;100.00
38054;BME280;23859;50.672;7.164;2022-11-12T06:15:46;102290.69;;;6.36;100.00
38054;BME280;23859;50.672;7.164;2022-11-12T06:18:12;102304.00;;;6.53;100.00
38054;BME280;23859;50.672;7.164;2022-11-12T06:20:38;102297.00;;;6.52;100.00
38054;BME280;23859;50.672;7.164;2022-11-12T06:23:05;102286.44;;;6.52;100.00
38054;BME280;23859;50.672;7.164;2022-11-12T06:25:31;102290.56;;;6.39;100.00
38054;BME280;23859;50.672;7.164;2022-11-12T06:27:57;102291.09;;;6.27;100.00
38054;BME280;23859;50.672;7.164;2022-11-12T06:30:23;102292.66;;;6.31;100.00
38054;BME280;23859;50.672;7.164;2022-11-12T06:32:49;102293.59;;;6.30;100.00
38054;BME280;23859;50.672;7.164;2022-11-12T06:35:16;102295.38;;;6.29;100.00
38054;BME280;23859;50.672;7.164;2022-11-12T06:37:44;102297.16;;;6.29;100.00
38054;BME280;23859;50.672;7.164;2022-11-12T06:40:10;102290.38;;;6.23;100.00
38054;BME280;23859;50.672;7.164;2022-11-12T06:42:36;102298.09;;;6.28;100.00
38054;BME280;23859;50.672;7.164;2022-11-12T06:45:02;102285.94;;;6.24;100.00
38054;BME280;23859;50.672;7.164;2022-11-12T06:47:28;102290.88;;;6.31;100.00
38054;BME280;23859;50.672;7.164;2022-11-12T06:49:54;102293.66;;;6.28;100.00
38054;BME280;23859;50.672;7.164;2022-11-12T06:52:20;102292.94;;;6.25;100.00
38054;BME280;23859;50.672;7.164;2022-11-12T06:54:46;102302.75;;;6.21;100.00
38054;BME280;23859;50.672;7.164;2022-11-12T06:57:12;102297.38;;;6.24;100.00
38054;BME280;23859;50.672;7.164;2022-11-12T06:59:38;102298.47;;;6.19;100.00
38054;BME280;23859;50.672;7.164;2022-11-12T07:02:04;102305.38;;;6.23;100.00
38054;BME280;23859;50.672;7.164;2022-11-12T07:04:31;102308.91;;;6.22;100.00
38054;BME280;23859;50.672;7.164;2022-11-12T07:06:57;102300.41;;;6.35;100.00
38054;BME280;23859;50.672;7.164;2022-11-12T07:09:23;102310.06;;;6.35;100.00
38054;BME280;23859;50.672;7.164;2022-11-12T07:11:49;102321.03;;;6.46;100.00
38054;BME280;23859;50.672;7.164;2022-11-12T07:14:14;102319.19;;;6.48;100.00
38054;BME280;23859;50.672;7.164;2022-11-12T07:16:40;102325.16;;;6.71;100.00
38054;BME280;23859;50.672;7.164;2022-11-12T07:19:06;102322.13;;;6.60;100.00
38054;BME280;23859;50.672;7.164;2022-11-12T07:21:32;102329.06;;;6.62;100.00
38054;BME280;23859;50.672;7.164;2022-11-12T07:23:58;102331.41;;;6.68;100.00
38054;BME280;23859;50.672;7.164;2022-11-12T07:26:25;102329.94;;;6.63;100.00
38054;BME280;23859;50.672;7.164;2022-11-12T07:28:52;102333.41;;;6.63;100.00
38054;BME280;23859;50.672;7.164;2022-11-12T07:31:21;102335.97;;;6.65;100.00
38054;BME280;23859;50.672;7.164;2022-11-12T07:33:47;102327.06;;;6.67;100.00
38054;BME280;23859;50.672;7.164;2022-11-12T07:36:17;102336.09;;;6.82;100.00
38054;BME280;23859;50.672;7.164;2022-11-12T07:38:44;102326.44;;;6.81;100.00
38054;BME280;23859;50.672;7.164;2022-11-12T07:43:36;102327.44;;;6.78;100.00
38054;BME280;23859;50.672;7.164;2022-11-12T07:46:04;102330.78;;;6.82;100.00
38054;BME280;23859;50.672;7.164;2022-11-12T07:48:30;102332.63;;;6.80;100.00
38054;BME280;23859;50.672;7.164;2022-11-12T07:51:00;102340.94;;;6.91;100.00
38054;BME280;23859;50.672;7.164;2022-11-12T07:53:26;102329.78;;;6.84;100.00
38054;BME280;23859;50.672;7.164;2022-11-12T07:55:53;102340.94;;;6.91;100.00
38054;BME280;23859;50.672;7.164;2022-11-12T07:58:20;102344.28;;;6.94;100.00
38054;BME280;23859;50.672;7.164;2022-11-12T08:00:46;102334.72;;;7.10;100.00
38054;BME280;23859;50.672;7.164;2022-11-12T08:03:12;102334.59;;;7.31;100.00
38054;BME280;23859;50.672;7.164;2022-11-12T08:05:38;102335.13;;;7.38;100.00
38054;BME280;23859;50.672;7.164;2022-11-12T08:08:04;102325.78;;;7.31;100.00
38054;BME280;23859;50.672;7.164;2022-11-12T08:10:29;102326.78;;;7.28;100.00
38054;BME280;23859;50.672;7.164;2022-11-12T08:12:55;102334.31;;;7.37;100.00
38054;BME280;23859;50.672;7.164;2022-11-12T08:15:21;102333.28;;;7.40;100.00
38054;BME280;23859;50.672;7.164;2022-11-12T08:17:47;102330.22;;;7.66;100.00
38054;BME280;23859;50.672;7.164;2022-11-12T08:20:13;102329.47;;;7.81;100.00
38054;BME280;23859;50.672;7.164;2022-11-12T08:22:40;102327.25;;;8.07;100.00
38054;BME280;23859;50.672;7.164;2022-11-12T08:25:06;102327.06;;;8.10;100.00
38054;BME280;23859;50.672;7.164;2022-11-12T08:27:32;102325.94;;;8.15;100.00
38054;BME280;23859;50.672;7.164;2022-11-12T08:29:59;102335.03;;;8.27;100.00
38054;BME280;23859;50.672;7.164;2022-11-12T08:32:25;102332.00;;;8.17;100.00
38054;BME280;23859;50.672;7.164;2022-11-12T08:34:51;102324.34;;;8.11;100.00
38054;BME280;23859;50.672;7.164;2022-11-12T08:37:17;102329.66;;;8.28;100.00
38054;BME280;23859;50.672;7.164;2022-11-12T08:39:43;102331.06;;;8.35;100.00
38054;BME280;23859;50.672;7.164;2022-11-12T08:42:09;102329.16;;;8.54;100.00
38054;BME280;23859;50.672;7.164;2022-11-12T08:44:35;102327.63;;;8.98;100.00
38054;BME280;23859;50.672;7.164;2022-11-12T08:47:01;102335.25;;;9.50;98.11
38054;BME280;23859;50.672;7.164;2022-11-12T08:49:27;102333.50;;;9.80;95.51
38054;BME280;23859;50.672;7.164;2022-11-12T08:51:54;102344.31;;;9.61;95.61
38054;BME280;23859;50.672;7.164;2022-11-12T08:54:20;102340.41;;;9.37;97.82
38054;BME280;23859;50.672;7.164;2022-11-12T08:56:46;102344.34;;;9.30;98.34
38054;BME280;23859;50.672;7.164;2022-11-12T08:59:12;102349.47;;;9.33;98.58
38054;BME280;23859;50.672;7.164;2022-11-12T09:01:38;102355.84;;;8.99;100.00
38054;BME280;23859;50.672;7.164;2022-11-12T09:04:04;102354.94;;;9.61;98.14
38054;BME280;23859;50.672;7.164;2022-11-12T09:06:30;102341.00;;;9.87;95.06
38054;BME280;23859;50.672;7.164;2022-11-12T09:08:56;102344.34;;;9.30;98.90
38054;BME280;23859;50.672;7.164;2022-11-12T09:11:22;102340.22;;;9.40;98.18
38054;BME280;23859;50.672;7.164;2022-11-12T09:13:51;102343.31;;;9.33;98.55
38054;BME280;23859;50.672;7.164;2022-11-12T09:16:17;102338.00;;;9.48;98.53
38054;BME280;23859;50.672;7.164;2022-11-12T09:18:43;102351.09;;;10.11;94.54
38054;BME280;23859;50.672;7.164;2022-11-12T09:21:10;102331.72;;;11.36;87.47
38054;BME280;23859;50.672;7.164;2022-11-12T09:23:36;102246.63;;;11.08;84.93
38054;BME280;23859;50.672;7.164;2022-11-12T09:26:02;102321.50;;;12.59;79.95
38054;BME280;23859;50.672;7.164;2022-11-12T09:28:29;102327.50;;;12.87;77.60
38054;BME280;23859;50.672;7.164;2022-11-12T09:30:55;102326.94;;;12.57;78.40
38054;BME280;23859;50.672;7.164;2022-11-12T09:33:22;102326.53;;;12.51;78.87
38054;BME280;23859;50.672;7.164;2022-11-12T09:35:49;102328.19;;;13.14;76.61
38054;BME280;23859;50.672;7.164;2022-11-12T09:38:15;102321.28;;;13.70;73.52
38054;BME280;23859;50.672;7.164;2022-11-12T09:45:48;102314.66;;;14.33;70.02
38054;BME280;23859;50.672;7.164;2022-11-12T09:48:24;102317.47;;;14.54;68.49
38054;BME280;23859;50.672;7.164;2022-11-12T09:50:53;102316.53;;;15.42;65.36
38054;BME280;23859;50.672;7.164;2022-11-12T09:55:47;102316.78;;;15.28;64.78
38054;BME280;23859;50.672;7.164;2022-11-12T09:58:14;102314.59;;;15.22;65.48
38054;BME280;23859;50.672;7.164;2022-11-12T10:00:55;102312.44;;;15.69;63.83
38054;BME280;23859;50.672;7.164;2022-11-12T10:05:55;102308.88;;;16.00;63.32
38054;BME280;23859;50.672;7.164;2022-11-12T10:08:40;102311.59;;;15.69;64.19
38054;BME280;23859;50.672;7.164;2022-11-12T10:14:07;102308.53;;;13.97;71.10
38054;BME280;23859;50.672;7.164;2022-11-12T10:16:49;102317.91;;;13.32;73.78
38054;BME280;23859;50.672;7.164;2022-11-12T10:19:25;102323.66;;;13.86;72.00
38054;BME280;23859;50.672;7.164;2022-11-12T10:22:04;102297.63;;;14.45;70.26
38054;BME280;23859;50.672;7.164;2022-11-12T10:24:33;102297.22;;;14.17;70.03
38054;BME280;23859;50.672;7.164;2022-11-12T10:27:01;102296.63;;;14.35;69.39
38054;BME280;23859;50.672;7.164;2022-11-12T10:29:29;102299.47;;;13.76;72.49
38054;BME280;23859;50.672;7.164;2022-11-12T10:31:59;102306.44;;;13.07;75.41
38054;BME280;23859;50.672;7.164;2022-11-12T10:34:25;102301.00;;;12.84;77.20
38054;BME280;23859;50.672;7.164;2022-11-12T10:36:52;102299.06;;;13.11;76.20
38054;BME280;23859;50.672;7.164;2022-11-12T10:42:03;102288.34;;;13.70;73.69
38054;BME280;23859;50.672;7.164;2022-11-12T10:44:30;102273.19;;;14.04;72.67
38054;BME280;23859;50.672;7.164;2022-11-12T10:49:40;102276.13;;;14.01;72.79
38054;BME280;23859;50.672;7.164;2022-11-12T10:52:16;102279.50;;;13.69;74.21
38054;BME280;23859;50.672;7.164;2022-11-12T10:54:44;102273.09;;;13.25;76.55
38054;BME280;23859;50.672;7.164;2022-11-12T10:57:20;102264.38;;;13.34;76.85
38054;BME280;23859;50.672;7.164;2022-11-12T10:59:54;102269.34;;;13.51;75.87
38054;BME280;23859;50.672;7.164;2022-11-12T11:02:30;102261.25;;;13.17;77.82
38054;BME280;23859;50.672;7.164;2022-11-12T11:04:56;102262.66;;;13.56;76.69
38054;BME280;23859;50.672;7.164;2022-11-12T11:07:22;102253.72;;;13.92;74.74
38054;BME280;23859;50.672;7.164;2022-11-12T11:09:53;102258.66;;;13.85;75.06
38054;BME280;23859;50.672;7.164;2022-11-12T11:12:24;102255.09;;;13.39;77.05
38054;BME280;23859;50.672;7.164;2022-11-12T11:17:35;102241.81;;;14.41;73.48
38054;BME280;23859;50.672;7.164;2022-11-12T11:20:05;102244.50;;;14.52;72.62
38054;BME280;23859;50.672;7.164;2022-11-12T11:22:40;102250.34;;;14.67;72.10
38054;BME280;23859;50.672;7.164;2022-11-12T11:25:11;102247.78;;;14.66;72.63
38054;BME280;23859;50.672;7.164;2022-11-12T11:27:40;102247.78;;;14.44;73.07
38054;BME280;23859;50.672;7.164;2022-11-12T11:32:55;102235.75;;;14.50;73.04
38054;BME280;23859;50.672;7.164;2022-11-12T11:40:37;102235.66;;;15.37;69.64
38054;BME280;23859;50.672;7.164;2022-11-12T11:45:37;102230.81;;;16.64;64.31
38054;BME280;23859;50.672;7.164;2022-11-12T11:50:41;102226.63;;;15.69;68.05
38054;BME280;23859;50.672;7.164;2022-11-12T11:53:23;102229.63;;;15.55;67.70
38054;BME280;23859;50.672;7.164;2022-11-12T11:58:43;102236.09;;;15.53;67.92
38054;BME280;23859;50.672;7.164;2022-11-12T12:01:31;102237.72;;;15.65;67.43
38054;BME280;23859;50.672;7.164;2022-11-12T12:06:46;102222.16;;;15.70;67.66
38054;BME280;23859;50.672;7.164;2022-11-12T12:12:22;102231.19;;;15.05;69.63
38054;BME280;23859;50.672;7.164;2022-11-12T12:17:34;102217.47;;;14.87;70.59
38054;BME280;23859;50.672;7.164;2022-11-12T12:20:13;102215.13;;;15.05;69.92
38054;BME280;23859;50.672;7.164;2022-11-12T12:22:44;102203.91;;;15.64;68.51
38054;BME280;23859;50.672;7.164;2022-11-12T12:25:15;102202.31;;;16.02;65.98
38054;BME280;23859;50.672;7.164;2022-11-12T12:30:35;102197.59;;;15.74;67.44
38054;BME280;23859;50.672;7.164;2022-11-12T12:35:33;102197.09;;;16.00;66.47
38054;BME280;23859;50.672;7.164;2022-11-12T12:38:16;102194.78;;;15.76;68.47
38054;BME280;23859;50.672;7.164;2022-11-12T12:40:46;102194.00;;;15.64;68.28
38054;BME280;23859;50.672;7.164;2022-11-12T12:43:26;102189.44;;;15.24;70.13
38054;BME280;23859;50.672;7.164;2022-11-12T12:45:57;102173.91;;;15.38;69.31
38054;BME280;23859;50.672;7.164;2022-11-12T12:48:26;102177.75;;;15.25;69.76
38054;BME280;23859;50.672;7.164;2022-11-12T12:50:53;102178.38;;;15.07;70.68
38054;BME280;23859;50.672;7.164;2022-11-12T12:55:55;102187.03;;;14.99;72.69
38054;BME280;23859;50.672;7.164;2022-11-12T13:00:55;102182.38;;;15.01;72.26
38054;BME280;23859;50.672;7.164;2022-11-12T13:06:07;102177.94;;;14.80;73.79
38054;BME280;23859;50.672;7.164;2022-11-12T13:08:38;102177.06;;;14.90;73.22
38054;BME280;23859;50.672;7.164;2022-11-12T13:11:04;102170.75;;;14.80;73.44
38054;BME280;23859;50.672;7.164;2022-11-12T13:13:32;102166.66;;;14.65;74.15
38054;BME280;23859;50.672;7.164;2022-11-12T13:15:59;102170.06;;;14.67;74.47
38054;BME280;23859;50.672;7.164;2022-11-12T13:21:11;102176.16;;;14.37;76.09
38054;BME280;23859;50.672;7.164;2022-11-12T13:23:50;102168.72;;;14.18;77.56
38054;BME280;23859;50.672;7.164;2022-11-12T13:26:44;102171.25;;;13.98;78.21
38054;BME280;23859;50.672;7.164;2022-11-12T13:29:44;102171.94;;;14.00;79.03
38054;BME280;23859;50.672;7.164;2022-11-12T13:34:47;102155.06;;;13.99;78.17
38054;BME280;23859;50.672;7.164;2022-11-12T13:37:17;102155.41;;;13.95;79.06
38054;BME280;23859;50.672;7.164;2022-11-12T13:39:44;102165.16;;;13.96;79.17
38054;BME280;23859;50.672;7.164;2022-11-12T13:42:11;102176.13;;;14.04;79.27
38054;BME280;23859;50.672;7.164;2022-11-12T13:44:57;102171.88;;;14.12;79.97
38054;BME280;23859;50.672;7.164;2022-11-12T13:47:24;102165.47;;;14.15;78.55
38054;BME280;23859;50.672;7.164;2022-11-12T13:49:54;102167.88;;;14.18;78.40
38054;BME280;23859;50.672;7.164;2022-11-12T13:52:20;102160.59;;;14.09;80.28
38054;BME280;23859;50.672;7.164;2022-11-12T13:54:46;102157.31;;;14.27;77.70
38054;BME280;23859;50.672;7.164;2022-11-12T13:57:27;102156.31;;;14.28;78.05
38054;BME280;23859;50.672;7.164;2022-11-12T14:00:06;102159.75;;;14.30;78.29
38054;BME280;23859;50.672;7.164;2022-11-12T14:02:32;102156.84;;;14.22;78.02
38054;BME280;23859;50.672;7.164;2022-11-12T14:04:58;102162.06;;;14.13;78.77
38054;BME280;23859;50.672;7.164;2022-11-12T14:15:00;102150.47;;;14.12;77.38